Time;durP1;ratioP1;P1;durP2;ratioP2;P2;SDS_P1;SDS_P2;PMS_P1;PMS_P2;Temp;Humidity;BMP_temperature;BMP_pressure;BME280_temperature;BME280_humidity;BME280_pressure;Samples;Min_cycle;Max_cycle;Signal;HPM_P1;HPM_P2
2021/10/26 00:00:31;;;;;;;;;;;;;;;0.87;100.00;101129.41;5074140;28;19924;-76
2021/10/26 00:02:58;;;;;;;;;;;;;;;0.88;100.00;101128.50;5074080;28;19970;-76
2021/10/26 00:05:25;;;;;;;;;;;;;;;0.86;100.00;101138.38;5074255;28;19928;-77
2021/10/26 00:07:52;;;;;;;;;;;;;;;0.80;100.00;101132.31;5073674;28;20027;-77
2021/10/26 00:10:18;;;;;;;;;;;;;;;0.80;100.00;101140.34;5074209;28;20415;-76
2021/10/26 00:12:44;;;;;;;;;;;;;;;0.82;100.00;101135.78;5073904;28;19978;-76
2021/10/26 00:15:11;;;;;;;;;;;;;;;0.88;100.00;101136.50;5074031;28;19935;-76
2021/10/26 00:17:37;;;;;;;;;;;;;;;0.84;100.00;101143.75;5073298;28;20024;-76
2021/10/26 00:20:04;;;;;;;;;;;;;;;0.82;100.00;101138.47;5073556;28;20447;-76
2021/10/26 00:22:32;;;;;;;;;;;;;;;0.83;100.00;101136.69;5073726;28;19925;-76
2021/10/26 00:24:58;;;;;;;;;;;;;;;0.78;100.00;101136.81;5073683;28;19933;-76
2021/10/26 00:27:24;;;;;;;;;;;;;;;0.70;100.00;101130.88;5073405;28;19925;-76
2021/10/26 00:29:51;;;;;;;;;;;;;;;0.72;100.00;101129.03;5089318;28;20015;-76
2021/10/26 00:32:17;;;;;;;;;;;;;;;0.72;100.00;101129.03;5089266;28;20426;-76
2021/10/26 00:34:44;;;;;;;;;;;;;;;0.66;100.00;101132.75;5073667;28;20586;-76
2021/10/26 00:37:11;;;;;;;;;;;;;;;0.66;100.00;101129.22;5073032;28;19928;-76
2021/10/26 00:39:41;;;;;;;;;;;;;;;0.58;100.00;101128.63;5088009;28;19925;-76
2021/10/26 00:42:10;;;;;;;;;;;;;;;0.57;100.00;101130.41;5089185;28;20338;-76
2021/10/26 00:44:37;;;;;;;;;;;;;;;0.56;100.00;101125.09;5089144;28;19931;-76
2021/10/26 00:47:04;;;;;;;;;;;;;;;0.57;100.00;101118.84;5055213;28;19924;-76
2021/10/26 00:49:30;;;;;;;;;;;;;;;0.60;100.00;101119.63;5088972;28;19924;-76
2021/10/26 00:51:57;;;;;;;;;;;;;;;0.66;100.00;101121.22;5055419;28;20371;-76
2021/10/26 00:54:23;;;;;;;;;;;;;;;0.77;100.00;101124.38;5055074;28;19962;-76
2021/10/26 00:56:53;;;;;;;;;;;;;;;0.90;100.00;101129.34;5055166;28;19994;-76
2021/10/26 00:59:20;;;;;;;;;;;;;;;1.02;100.00;101123.56;5073133;28;20316;-76
2021/10/26 01:01:49;;;;;;;;;;;;;;;1.17;100.00;101116.78;5088846;28;19967;-76
2021/10/26 01:04:17;;;;;;;;;;;;;;;1.31;100.00;101114.47;5088588;28;19960;-76
2021/10/26 01:06:44;;;;;;;;;;;;;;;1.46;100.00;101107.69;5072487;28;19928;-76
2021/10/26 01:09:10;;;;;;;;;;;;;;;1.60;100.00;101099.13;5088619;28;19932;-76
2021/10/26 01:11:37;;;;;;;;;;;;;;;1.71;100.00;101100.53;5088103;28;19925;-76
2021/10/26 01:14:05;;;;;;;;;;;;;;;1.88;100.00;101094.53;5072639;28;19924;-76
2021/10/26 01:16:32;;;;;;;;;;;;;;;2.11;100.00;101105.22;5054443;28;19924;-76
2021/10/26 01:18:58;;;;;;;;;;;;;;;2.28;100.00;101111.69;5072753;28;19925;-76
2021/10/26 01:21:26;;;;;;;;;;;;;;;2.51;100.00;101116.09;5088157;28;19935;-76
2021/10/26 01:23:52;;;;;;;;;;;;;;;2.68;100.00;101115.41;5088270;28;19986;-76
2021/10/26 01:26:19;;;;;;;;;;;;;;;2.87;100.00;101122.69;5088040;28;19924;-76
2021/10/26 01:28:47;;;;;;;;;;;;;;;3.00;100.00;101124.75;5088131;28;19929;-76
2021/10/26 01:31:14;;;;;;;;;;;;;;;3.16;100.00;101140.19;5087960;28;20264;-76
2021/10/26 01:33:59;;;;;;;;;;;;;;;3.30;100.00;101136.88;5088052;28;19947;-76
2021/10/26 01:36:33;;;;;;;;;;;;;;;3.41;100.00;101140.00;5087710;28;19931;-76
2021/10/26 01:39:00;;;;;;;;;;;;;;;3.51;100.00;101148.50;5087812;28;19950;-76
2021/10/26 01:41:28;;;;;;;;;;;;;;;3.58;100.00;101139.25;5087794;28;19935;-76
2021/10/26 01:43:56;;;;;;;;;;;;;;;3.65;100.00;101139.84;5087845;28;19924;-76
2021/10/26 01:46:23;;;;;;;;;;;;;;;3.70;100.00;101135.09;5087551;28;19924;-76
2021/10/26 01:48:50;;;;;;;;;;;;;;;3.75;100.00;101132.22;5087588;28;19977;-76
2021/10/26 01:51:16;;;;;;;;;;;;;;;3.80;100.00;101133.72;5089947;28;20463;-76
2021/10/26 01:53:44;;;;;;;;;;;;;;;3.84;100.00;101127.28;5087775;28;19978;-76
2021/10/26 01:56:13;;;;;;;;;;;;;;;3.93;100.00;101125.09;5087346;28;19947;-76
2021/10/26 01:58:52;;;;;;;;;;;;;;;3.98;100.00;101123.97;5087709;28;20009;-75
2021/10/26 02:01:31;;;;;;;;;;;;;;;4.05;100.00;101123.66;5087488;28;19924;-76
2021/10/26 02:03:58;;;;;;;;;;;;;;;4.07;100.00;101141.44;5087459;28;19994;-76
2021/10/26 02:06:27;;;;;;;;;;;;;;;4.11;100.00;101143.03;5087024;28;20022;-76
2021/10/26 02:08:55;;;;;;;;;;;;;;;4.12;100.00;101133.19;5087104;28;19924;-76
2021/10/26 02:11:22;;;;;;;;;;;;;;;4.13;100.00;101140.25;5070522;28;20023;-76
2021/10/26 02:13:48;;;;;;;;;;;;;;;4.12;100.00;101138.56;5071641;28;19978;-76
2021/10/26 02:16:15;;;;;;;;;;;;;;;4.08;100.00;101132.44;5087063;28;19924;-76
2021/10/26 02:18:42;;;;;;;;;;;;;;;4.01;100.00;101126.50;5087045;28;19925;-75
2021/10/26 02:21:10;;;;;;;;;;;;;;;3.97;100.00;101124.03;5087077;28;19928;-76
2021/10/26 02:23:37;;;;;;;;;;;;;;;3.90;100.00;101133.31;5071350;28;20351;-75
2021/10/26 02:26:05;;;;;;;;;;;;;;;3.79;100.00;101118.56;5086479;28;19931;-76
2021/10/26 02:28:33;;;;;;;;;;;;;;;3.68;100.00;101113.69;5087216;28;20380;-76
2021/10/26 02:31:00;;;;;;;;;;;;;;;3.58;100.00;101116.88;5087083;28;20363;-75
2021/10/26 02:33:26;;;;;;;;;;;;;;;3.48;100.00;101122.66;5053297;28;19982;-76
2021/10/26 02:35:53;;;;;;;;;;;;;;;3.42;100.00;101131.00;5086753;28;20326;-75
2021/10/26 02:38:19;;;;;;;;;;;;;;;3.38;100.00;101120.47;5086985;28;19985;-75
2021/10/26 02:40:45;;;;;;;;;;;;;;;3.35;100.00;101122.34;5086736;28;20396;-75
2021/10/26 02:43:14;;;;;;;;;;;;;;;3.31;100.00;101118.06;5086859;28;19931;-76
2021/10/26 02:45:40;;;;;;;;;;;;;;;3.25;100.00;101126.38;5086318;28;20027;-75
2021/10/26 02:48:09;;;;;;;;;;;;;;;3.22;100.00;101126.53;5071175;28;19924;-75
2021/10/26 02:50:36;;;;;;;;;;;;;;;3.17;100.00;101134.75;5086818;28;19925;-76
2021/10/26 02:53:02;;;;;;;;;;;;;;;3.16;100.00;101129.47;5086876;28;19986;-75
2021/10/26 02:55:29;;;;;;;;;;;;;;;3.09;100.00;101134.22;5071116;28;20015;-75
2021/10/26 02:57:55;;;;;;;;;;;;;;;2.99;100.00;101124.81;5052923;28;19924;-75
2021/10/26 03:00:25;;;;;;;;;;;;;;;2.94;100.00;101117.00;5053021;28;19959;-75
2021/10/26 03:02:54;;;;;;;;;;;;;;;2.91;100.00;101111.75;5054313;28;20330;-76
2021/10/26 03:05:21;;;;;;;;;;;;;;;2.85;100.00;101112.03;5075164;28;19978;-75
2021/10/26 03:07:47;;;;;;;;;;;;;;;2.82;100.00;101112.16;5090600;28;20442;-75
2021/10/26 03:10:15;;;;;;;;;;;;;;;2.81;100.00;101115.78;5090733;28;20375;-76
2021/10/26 03:12:41;;;;;;;;;;;;;;;2.78;100.00;101111.41;5074926;28;20438;-76
2021/10/26 03:15:09;;;;;;;;;;;;;;;2.73;100.00;101117.91;5090726;28;20023;-76
2021/10/26 03:17:37;;;;;;;;;;;;;;;2.70;100.00;101112.66;5056759;28;19924;-76
2021/10/26 03:20:17;;;;;;;;;;;;;;;2.67;100.00;101116.34;5090318;28;19924;-75
2021/10/26 03:22:45;;;;;;;;;;;;;;;2.61;100.00;101116.63;5090652;28;19924;-76
2021/10/26 03:25:11;;;;;;;;;;;;;;;2.60;100.00;101120.22;5090482;28;19929;-75
2021/10/26 03:27:38;;;;;;;;;;;;;;;2.64;100.00;101121.84;5090034;28;19933;-75
2021/10/26 03:30:07;;;;;;;;;;;;;;;2.65;100.00;101115.56;5057052;28;19971;-75
2021/10/26 03:32:34;;;;;;;;;;;;;;;2.65;100.00;101118.22;5056572;28;19925;-75
2021/10/26 03:35:26;;;;;;;;;;;;;;;2.66;100.00;101114.63;5090318;28;19982;-75
2021/10/26 03:37:53;;;;;;;;;;;;;;;2.70;100.00;101113.56;5089605;28;19924;-75
2021/10/26 03:40:19;;;;;;;;;;;;;;;2.80;100.00;101111.34;5090089;28;19932;-76
2021/10/26 03:42:46;;;;;;;;;;;;;;;2.83;100.00;101117.47;5090064;28;20393;-76
2021/10/26 03:45:12;;;;;;;;;;;;;;;2.86;100.00;101113.78;5090429;28;19955;-75
2021/10/26 03:47:40;;;;;;;;;;;;;;;2.89;100.00;101118.13;5089782;28;20152;-75
2021/10/26 03:50:08;;;;;;;;;;;;;;;2.96;100.00;101109.72;5074323;28;20354;-75
2021/10/26 03:52:36;;;;;;;;;;;;;;;3.01;100.00;101106.88;5056506;28;20356;-76
2021/10/26 03:55:03;;;;;;;;;;;;;;;3.08;100.00;101111.00;5090008;28;20410;-76
2021/10/26 03:57:30;;;;;;;;;;;;;;;3.16;100.00;101116.91;5055507;28;19931;-75
2021/10/26 03:59:57;;;;;;;;;;;;;;;3.24;100.00;101119.25;5092456;28;20012;-76
2021/10/26 04:02:26;;;;;;;;;;;;;;;3.32;100.00;101121.63;5074131;28;19924;-75
2021/10/26 04:04:52;;;;;;;;;;;;;;;3.36;100.00;101123.22;5089799;28;19928;-76
2021/10/26 04:07:20;;;;;;;;;;;;;;;3.43;100.00;101116.63;5089138;28;20391;-75
2021/10/26 04:09:50;;;;;;;;;;;;;;;3.48;100.00;101122.66;5089772;28;20056;-75
2021/10/26 04:12:25;;;;;;;;;;;;;;;3.50;100.00;101118.09;5089171;28;19928;-75
2021/10/26 04:14:52;;;;;;;;;;;;;;;3.54;100.00;101117.94;5096148;28;19978;-75
2021/10/26 04:17:20;;;;;;;;;;;;;;;3.54;100.00;101115.25;5075553;28;20027;-75
2021/10/26 04:19:47;;;;;;;;;;;;;;;3.54;100.00;101116.16;5094090;28;19992;-75
2021/10/26 04:22:14;;;;;;;;;;;;;;;3.57;100.00;101126.75;5061087;28;19985;-75
2021/10/26 04:24:41;;;;;;;;;;;;;;;3.59;100.00;101126.66;5093687;28;20410;-75
2021/10/26 04:27:08;;;;;;;;;;;;;;;3.62;100.00;101126.53;5075353;28;19924;-75
2021/10/26 04:29:36;;;;;;;;;;;;;;;3.66;100.00;101130.81;5075109;28;19935;-75
2021/10/26 04:32:02;;;;;;;;;;;;;;;3.71;100.00;101134.16;5069892;28;19927;-75
2021/10/26 04:34:31;;;;;;;;;;;;;;;3.75;100.00;101129.53;5075454;28;20034;-75
2021/10/26 04:36:57;;;;;;;;;;;;;;;3.80;100.00;101128.38;5075090;28;19924;-74
2021/10/26 04:39:25;;;;;;;;;;;;;;;3.87;100.00;101136.16;5075088;28;19924;-74
2021/10/26 04:41:52;;;;;;;;;;;;;;;3.95;100.00;101118.72;5075473;28;19924;-74
2021/10/26 04:44:19;;;;;;;;;;;;;;;4.03;100.00;101121.03;5075553;28;19924;-74
2021/10/26 04:46:46;;;;;;;;;;;;;;;4.09;100.00;101126.13;5074490;28;20001;-74
2021/10/26 04:49:13;;;;;;;;;;;;;;;4.15;100.00;101123.13;5075013;28;19925;-74
2021/10/26 04:51:41;;;;;;;;;;;;;;;4.22;100.00;101133.59;5075244;28;20323;-74
2021/10/26 04:54:07;;;;;;;;;;;;;;;4.27;100.00;101128.88;5075312;28;19924;-73
2021/10/26 04:56:35;;;;;;;;;;;;;;;4.29;100.00;101135.91;5074537;28;19931;-74
2021/10/26 04:59:29;;;;;;;;;;;;;;;4.37;100.00;101132.88;5076969;28;20025;-74
2021/10/26 05:01:55;;;;;;;;;;;;;;;4.40;100.00;101131.84;5075093;28;20372;-75
2021/10/26 05:04:23;;;;;;;;;;;;;;;4.43;100.00;101132.53;5074586;28;19931;-74
2021/10/26 05:06:50;;;;;;;;;;;;;;;4.47;100.00;101134.13;5074515;28;19924;-73
2021/10/26 05:09:16;;;;;;;;;;;;;;;4.51;100.00;101140.25;5092660;28;19924;-73
2021/10/26 05:11:43;;;;;;;;;;;;;;;4.57;100.00;101137.25;5092768;28;19924;-73
2021/10/26 05:14:10;;;;;;;;;;;;;;;4.62;100.00;101134.31;5074976;28;19953;-74
2021/10/26 05:16:57;;;;;;;;;;;;;;;4.66;100.00;101139.50;5092488;28;19931;-74
2021/10/26 05:20:03;;;;;;;;;;;;;;;4.73;100.00;101139.16;5049745;28;19929;-74
2021/10/26 05:22:51;;;;;;;;;;;;;;;4.77;100.00;101133.56;5050053;28;20066;-74
2021/10/26 05:25:41;;;;;;;;;;;;;;;4.82;100.00;101130.63;5068695;28;19932;-74
2021/10/26 05:28:14;;;;;;;;;;;;;;;4.84;100.00;101139.50;5074468;28;19998;-75
2021/10/26 05:30:40;;;;;;;;;;;;;;;4.87;100.00;101139.34;5074189;28;19924;-75
2021/10/26 05:33:09;;;;;;;;;;;;;;;4.90;100.00;101132.94;5092437;28;19974;-74
2021/10/26 05:35:35;;;;;;;;;;;;;;;4.91;100.00;101132.00;5092407;28;19967;-75
2021/10/26 05:38:01;;;;;;;;;;;;;;;4.92;100.00;101136.41;5092218;28;19946;-74
2021/10/26 05:40:28;;;;;;;;;;;;;;;4.94;100.00;101135.38;5092148;28;19959;-75
2021/10/26 05:42:54;;;;;;;;;;;;;;;4.97;100.00;101137.06;5073843;28;19954;-74
2021/10/26 05:45:20;;;;;;;;;;;;;;;4.99;100.00;101140.56;5074144;28;19931;-74
2021/10/26 05:47:48;;;;;;;;;;;;;;;5.03;100.00;101140.28;5073692;28;20446;-74
2021/10/26 05:50:16;;;;;;;;;;;;;;;5.03;100.00;101132.22;5092276;28;19975;-74
2021/10/26 05:52:42;;;;;;;;;;;;;;;5.07;100.00;101140.16;5070626;28;19963;-74
2021/10/26 05:55:08;;;;;;;;;;;;;;;5.09;100.00;101147.22;5092053;28;20383;-74
2021/10/26 05:57:36;;;;;;;;;;;;;;;5.12;100.00;101146.19;5107504;28;19963;-74
2021/10/26 06:00:03;;;;;;;;;;;;;;;5.13;100.00;101139.81;5091841;28;19935;-74
2021/10/26 06:02:38;;;;;;;;;;;;;;;5.16;100.00;101145.06;5091940;28;20015;-75
2021/10/26 06:05:04;;;;;;;;;;;;;;;5.19;100.00;101148.44;5073847;28;20380;-74
2021/10/26 06:07:33;;;;;;;;;;;;;;;5.22;100.00;101146.56;5107250;28;20026;-74
2021/10/26 06:09:59;;;;;;;;;;;;;;;5.25;100.00;101147.28;5092012;28;20053;-74
2021/10/26 06:12:30;;;;;;;;;;;;;;;5.28;100.00;101140.88;5073691;28;19981;-74
2021/10/26 06:14:56;;;;;;;;;;;;;;;5.28;100.00;101140.88;5073835;28;19971;-74
2021/10/26 06:17:24;;;;;;;;;;;;;;;5.30;100.00;101147.03;5091136;28;19967;-74
2021/10/26 06:19:54;;;;;;;;;;;;;;;5.31;100.00;101156.84;5073577;28;19962;-74
2021/10/26 06:22:21;;;;;;;;;;;;;;;5.32;100.00;101161.28;5073743;28;19931;-74
2021/10/26 06:24:50;;;;;;;;;;;;;;;5.36;100.00;101162.88;5073423;28;19971;-74
2021/10/26 06:27:17;;;;;;;;;;;;;;;5.41;100.00;101166.19;5073277;28;19931;-74
2021/10/26 06:29:45;;;;;;;;;;;;;;;5.45;100.00;101164.19;5073547;28;20288;-74
2021/10/26 06:32:30;;;;;;;;;;;;;;;5.49;100.00;101163.97;5091652;28;19931;-74
2021/10/26 06:34:57;;;;;;;;;;;;;;;5.56;100.00;101166.31;5073695;28;20011;-74
2021/10/26 06:37:24;;;;;;;;;;;;;;;5.62;100.00;101166.00;5071983;28;19924;-74
2021/10/26 06:39:54;;;;;;;;;;;;;;;5.67;100.00;101170.19;5073346;28;19928;-74
2021/10/26 06:42:22;;;;;;;;;;;;;;;5.75;100.00;101174.31;5073234;28;19950;-74
2021/10/26 06:45:07;;;;;;;;;;;;;;;5.80;100.00;101177.59;5091370;28;19932;-74
2021/10/26 06:47:59;;;;;;;;;;;;;;;5.85;100.00;101181.81;5091025;28;19924;-74
2021/10/26 06:50:44;;;;;;;;;;;;;;;5.87;100.00;101176.31;5091188;28;19930;-75
2021/10/26 06:53:29;;;;;;;;;;;;;;;5.91;100.00;101183.28;5091186;28;19992;-74
2021/10/26 06:56:21;;;;;;;;;;;;;;;5.99;100.00;101177.50;5090659;28;19935;-74
2021/10/26 06:59:05;;;;;;;;;;;;;;;6.07;100.00;101183.34;5091024;28;19954;-74
2021/10/26 07:01:51;;;;;;;;;;;;;;;6.13;100.00;101188.41;5091155;28;19993;-74
2021/10/26 07:04:37;;;;;;;;;;;;;;;6.21;100.00;101193.34;5090803;28;19924;-74
2021/10/26 07:07:30;;;;;;;;;;;;;;;6.31;100.00;101193.72;5072798;28;19924;-74
2021/10/26 07:10:09;;;;;;;;;;;;;;;6.39;100.00;101201.38;5073203;28;19924;-74
2021/10/26 07:12:54;;;;;;;;;;;;;;;6.50;100.00;101205.22;5106838;28;20009;-74
2021/10/26 07:15:20;;;;;;;;;;;;;;;6.57;100.00;101203.03;5073051;28;20301;-74
2021/10/26 07:17:47;;;;;;;;;;;;;;;6.67;100.00;101198.84;5072682;28;20141;-74
2021/10/26 07:20:14;;;;;;;;;;;;;;;6.76;100.00;101205.56;5073113;28;19924;-74
2021/10/26 07:22:58;;;;;;;;;;;;;;;6.89;100.00;101205.72;5090821;28;19931;-74
2021/10/26 07:25:52;;;;;;;;;;;;;;;6.93;100.00;101217.19;5066617;28;19932;-74
2021/10/26 07:28:22;;;;;;;;;;;;;;;6.93;100.00;101209.09;5072898;28;19963;-74
2021/10/26 07:30:49;;;;;;;;;;;;;;;7.00;100.00;101214.06;5072422;28;20022;-74
2021/10/26 07:33:18;;;;;;;;;;;;;;;7.09;100.00;101207.25;5072795;28;20387;-74
2021/10/26 07:35:47;;;;;;;;;;;;;;;7.16;100.00;101213.16;5072566;28;19923;-74
2021/10/26 07:38:16;;;;;;;;;;;;;;;7.26;100.00;101219.75;5072899;28;20023;-74
2021/10/26 07:40:42;;;;;;;;;;;;;;;7.32;100.00;101216.69;5072675;28;19968;-74
2021/10/26 07:43:45;;;;;;;;;;;;;;;7.46;100.00;101207.75;5090367;28;19928;-74
2021/10/26 07:46:46;;;;;;;;;;;;;;;7.56;100.00;101204.50;5072360;28;20387;-74
2021/10/26 07:49:16;;;;;;;;;;;;;;;7.64;100.00;101208.47;5074248;28;19928;-74
2021/10/26 07:51:42;;;;;;;;;;;;;;;7.73;100.00;101220.53;5076440;28;19977;-74
2021/10/26 07:54:09;;;;;;;;;;;;;;;7.80;100.00;101219.22;5091214;28;19931;-74
2021/10/26 07:56:36;;;;;;;;;;;;;;;7.92;100.00;101222.09;5076039;28;19924;-74
2021/10/26 07:59:05;;;;;;;;;;;;;;;7.97;100.00;101210.03;5076444;28;19928;-74
2021/10/26 08:01:33;;;;;;;;;;;;;;;8.10;100.00;101218.25;5059427;28;20299;-74
2021/10/26 08:03:59;;;;;;;;;;;;;;;8.20;100.00;101218.53;5110115;28;20255;-74
2021/10/26 08:06:26;;;;;;;;;;;;;;;8.35;100.00;101213.97;5075688;28;19967;-74
2021/10/26 08:08:53;;;;;;;;;;;;;;;8.52;100.00;101216.53;5075832;28;19946;-74
2021/10/26 08:11:20;;;;;;;;;;;;;;;8.62;100.00;101213.19;5076027;28;19924;-74
2021/10/26 08:13:50;;;;;;;;;;;;;;;8.77;100.00;101222.16;5076216;28;19990;-74
2021/10/26 08:16:20;;;;;;;;;;;;;;;8.90;100.00;101217.66;5075809;28;19928;-74
2021/10/26 08:18:47;;;;;;;;;;;;;;;9.08;100.00;101214.69;5075994;28;19928;-74
2021/10/26 08:21:14;;;;;;;;;;;;;;;9.20;100.00;101205.75;5075731;28;19928;-74
2021/10/26 08:23:43;;;;;;;;;;;;;;;9.32;100.00;101207.59;5075732;28;19924;-74
2021/10/26 08:26:15;;;;;;;;;;;;;;;9.48;100.00;101206.56;5093467;28;19924;-74
2021/10/26 08:28:41;;;;;;;;;;;;;;;9.59;100.00;101205.81;5075539;28;20007;-74
2021/10/26 08:31:18;;;;;;;;;;;;;;;9.68;100.00;101205.19;5075763;28;20039;-74
2021/10/26 08:34:08;;;;;;;;;;;;;;;9.71;100.00;101203.13;5075536;28;20398;-73
2021/10/26 08:36:34;;;;;;;;;;;;;;;9.82;100.00;101199.66;5075408;28;19924;-74
2021/10/26 08:39:02;;;;;;;;;;;;;;;9.91;100.00;101195.41;5075473;28;19972;-74
2021/10/26 08:41:29;;;;;;;;;;;;;;;9.95;100.00;101193.34;5075217;28;19978;-74
2021/10/26 08:43:58;;;;;;;;;;;;;;;9.97;100.00;101192.28;5075457;28;19924;-74
2021/10/26 08:46:24;;;;;;;;;;;;;;;10.00;100.00;101192.03;5093198;28;19935;-74
2021/10/26 08:48:53;;;;;;;;;;;;;;;9.99;100.00;101200.28;5075397;28;19924;-74
2021/10/26 08:51:39;;;;;;;;;;;;;;;9.91;100.00;101214.41;5093286;28;20410;-73
2021/10/26 08:54:08;;;;;;;;;;;;;;;9.91;100.00;101216.25;5075404;28;19932;-74
2021/10/26 08:57:06;;;;;;;;;;;;;;;10.01;100.00;101212.78;5092921;28;19924;-74
2021/10/26 08:59:52;;;;;;;;;;;;;;;10.09;100.00;101212.22;5092478;28;19930;-74
2021/10/26 09:02:18;;;;;;;;;;;;;;;10.12;100.00;101206.59;5074866;28;19924;-74
2021/10/26 09:04:46;;;;;;;;;;;;;;;10.16;100.00;101208.09;5074942;28;19932;-74
2021/10/26 09:07:17;;;;;;;;;;;;;;;10.19;100.00;101218.72;5074935;28;19993;-74
2021/10/26 09:09:44;;;;;;;;;;;;;;;10.14;100.00;101217.31;5074988;28;19937;-74
2021/10/26 09:18:18;;;;;;;;;;;;;;;10.17;100.00;101220.69;5092740;28;20027;-74
2021/10/26 09:21:02;;;;;;;;;;;;;;;10.28;100.00;101221.78;5074407;28;19924;-74
2021/10/26 09:23:46;;;;;;;;;;;;;;;10.39;100.00;101235.44;5074844;28;19924;-74
2021/10/26 09:26:13;;;;;;;;;;;;;;;10.46;100.00;101227.72;5092554;28;19927;-74
2021/10/26 09:28:49;;;;;;;;;;;;;;;10.48;100.00;101223.06;5074464;28;19988;-74
2021/10/26 09:31:23;;;;;;;;;;;;;;;10.57;100.00;101225.09;5092741;28;20405;-74
2021/10/26 09:33:57;;;;;;;;;;;;;;;10.58;100.00;101231.41;5074698;28;19930;-74
2021/10/26 09:36:25;;;;;;;;;;;;;;;10.63;100.00;101232.78;5091999;28;20024;-75
2021/10/26 09:39:09;;;;;;;;;;;;;;;10.71;100.00;101230.38;5092526;28;20460;-74
2021/10/26 09:41:36;;;;;;;;;;;;;;;10.82;100.00;101232.31;5092513;28;19924;-74
2021/10/26 09:44:08;;;;;;;;;;;;;;;10.88;100.00;101231.84;5092539;28;19930;-74
2021/10/26 09:46:35;;;;;;;;;;;;;;;10.92;100.00;101232.47;5092121;28;19928;-74
2021/10/26 09:49:01;;;;;;;;;;;;;;;10.96;100.00;101233.13;5091945;28;19974;-74
2021/10/26 09:51:32;;;;;;;;;;;;;;;11.07;100.00;101229.59;5089150;28;20019;-75
2021/10/26 09:53:59;;;;;;;;;;;;;;;11.28;100.00;101222.53;5092257;28;20273;-74
2021/10/26 09:56:25;;;;;;;;;;;;;;;11.47;100.00;101226.56;5091736;28;19928;-74
2021/10/26 09:59:06;;;;;;;;;;;;;;;11.74;100.00;101234.41;5073944;28;19959;-74
2021/10/26 10:01:34;;;;;;;;;;;;;;;11.89;100.00;101230.50;5092482;28;19997;-74
2021/10/26 10:04:03;;;;;;;;;;;;;;;12.04;100.00;101222.16;5091901;28;19924;-74
2021/10/26 10:06:44;;;;;;;;;;;;;;;12.12;100.00;101211.50;5091536;28;20028;-74
2021/10/26 10:09:20;;;;;;;;;;;;;;;12.16;100.00;101214.84;5091660;28;19967;-74
2021/10/26 10:11:57;;;;;;;;;;;;;;;12.22;100.00;101215.19;5091726;28;19932;-74
2021/10/26 10:14:23;;;;;;;;;;;;;;;12.62;100.00;101210.25;5091524;28;19967;-74
2021/10/26 10:16:51;;;;;;;;;;;;;;;12.92;100.00;101208.69;5091283;28;19924;-74
2021/10/26 10:19:18;;;;;;;;;;;;;;;13.10;100.00;101201.69;5091578;28;19924;-74
2021/10/26 10:21:45;;;;;;;;;;;;;;;13.32;100.00;101194.41;5091585;28;20450;-74
2021/10/26 10:24:13;;;;;;;;;;;;;;;13.47;100.00;101194.97;5091679;28;20208;-75
2021/10/26 10:26:42;;;;;;;;;;;;;;;13.55;100.00;101189.75;5091154;28;19971;-75
2021/10/26 10:29:09;;;;;;;;;;;;;;;13.52;100.00;101193.63;5091519;28;20353;-75
2021/10/26 10:31:35;;;;;;;;;;;;;;;13.50;100.00;101190.13;5091061;28;20367;-75
2021/10/26 10:34:03;;;;;;;;;;;;;;;13.35;100.00;101191.44;5091462;28;19951;-74
2021/10/26 10:36:29;;;;;;;;;;;;;;;13.55;100.00;101185.16;5091108;28;19930;-74
2021/10/26 10:38:56;;;;;;;;;;;;;;;13.67;100.00;101183.22;5091345;28;20024;-74
2021/10/26 10:41:26;;;;;;;;;;;;;;;13.84;100.00;101179.03;5091266;28;20023;-75
2021/10/26 10:43:54;;;;;;;;;;;;;;;14.03;100.00;101182.81;5091378;28;19924;-74
2021/10/26 10:46:40;;;;;;;;;;;;;;;14.33;100.00;101189.31;5090677;28;20768;-75
2021/10/26 10:49:31;;;;;;;;;;;;;;;14.44;100.00;101182.88;5090979;28;19924;-74
2021/10/26 10:51:59;;;;;;;;;;;;;;;14.83;100.00;101189.34;5085426;28;19928;-75
2021/10/26 10:54:39;;;;;;;;;;;;;;;15.05;100.00;101192.81;5090886;28;20015;-75
2021/10/26 10:57:18;;;;;;;;;;;;;;;14.59;100.00;101195.16;5091099;28;20399;-75
2021/10/26 10:59:46;;;;;;;;;;;;;;;14.13;100.00;101194.66;5091207;28;19981;-75
2021/10/26 11:02:18;;;;;;;;;;;;;;;13.64;100.00;101194.41;5091168;28;19924;-75
2021/10/26 11:04:44;;;;;;;;;;;;;;;13.44;100.00;101198.88;5090832;28;19924;-76
2021/10/26 11:07:11;;;;;;;;;;;;;;;13.22;100.00;101207.97;5090682;28;20018;-75
2021/10/26 11:09:40;;;;;;;;;;;;;;;13.04;100.00;101207.66;5091030;28;20283;-75
2021/10/26 11:12:18;;;;;;;;;;;;;;;12.76;100.00;101209.09;5091021;28;19956;-76
2021/10/26 11:14:47;;;;;;;;;;;;;;;12.54;100.00;101216.31;5091053;28;20625;-76
2021/10/26 11:17:32;;;;;;;;;;;;;;;12.46;100.00;101222.38;5090789;28;19960;-75
2021/10/26 11:19:59;;;;;;;;;;;;;;;12.38;100.00;101223.00;5090993;28;20418;-76
2021/10/26 11:22:43;;;;;;;;;;;;;;;12.39;100.00;101232.06;5090482;28;19924;-76
2021/10/26 11:25:20;;;;;;;;;;;;;;;12.38;100.00;101231.16;5094469;28;19928;-76
2021/10/26 11:27:46;;;;;;;;;;;;;;;12.43;100.00;101224.50;5094875;28;20448;-76
2021/10/26 11:30:31;;;;;;;;;;;;;;;12.41;100.00;101227.34;5094934;28;20018;-76
2021/10/26 11:33:29;;;;;;;;;;;;;;;12.44;100.00;101221.66;5094755;28;19999;-76
2021/10/26 11:36:00;;;;;;;;;;;;;;;12.46;100.00;101224.25;5076453;28;19954;-76
2021/10/26 11:38:28;;;;;;;;;;;;;;;12.47;100.00;101217.81;5076251;28;19924;-76
2021/10/26 11:40:55;;;;;;;;;;;;;;;12.46;100.00;101216.09;5094592;28;19963;-76
2021/10/26 11:43:21;;;;;;;;;;;;;;;12.43;100.00;101217.19;5094357;28;20426;-75
2021/10/26 11:45:55;;;;;;;;;;;;;;;12.44;100.00;101221.66;5094489;28;19965;-75
2021/10/26 11:48:40;;;;;;;;;;;;;;;12.44;100.00;101216.22;5073356;28;19924;-75
2021/10/26 11:51:18;;;;;;;;;;;;;;;12.56;100.00;101214.34;5074090;28;19929;-76
2021/10/26 11:53:45;;;;;;;;;;;;;;;12.67;100.00;101218.91;5085829;28;20292;-76
2021/10/26 11:56:18;;;;;;;;;;;;;;;12.69;100.00;101214.19;5094307;28;19934;-75
2021/10/26 11:58:53;;;;;;;;;;;;;;;12.60;100.00;101215.81;5073681;28;20435;-76
2021/10/26 12:01:20;;;;;;;;;;;;;;;12.55;100.00;101215.34;5068156;28;19931;-76
2021/10/26 12:03:47;;;;;;;;;;;;;;;12.55;100.00;101218.91;5094516;28;20031;-76
2021/10/26 12:06:13;;;;;;;;;;;;;;;12.36;100.00;101225.00;5093705;28;20379;-76
2021/10/26 12:08:41;;;;;;;;;;;;;;;12.25;100.00;101219.53;5094102;28;19928;-76
2021/10/26 12:11:07;;;;;;;;;;;;;;;12.26;100.00;101212.25;5093746;28;19974;-76
2021/10/26 12:13:34;;;;;;;;;;;;;;;12.28;100.00;101212.97;5093989;28;19985;-75
2021/10/26 12:16:12;;;;;;;;;;;;;;;12.30;100.00;101216.47;5093433;28;19928;-76
2021/10/26 12:18:38;;;;;;;;;;;;;;;12.30;100.00;101216.47;5093933;28;19924;-76
2021/10/26 12:21:05;;;;;;;;;;;;;;;12.26;100.00;101214.97;5093430;28;19947;-76
2021/10/26 12:23:33;;;;;;;;;;;;;;;12.29;100.00;101212.84;5075409;28;19924;-75
2021/10/26 12:26:09;;;;;;;;;;;;;;;12.27;100.00;101214.00;5093655;28;19924;-75
2021/10/26 12:28:35;;;;;;;;;;;;;;;12.26;100.00;101217.69;5093508;28;19966;-76
2021/10/26 12:31:04;;;;;;;;;;;;;;;12.32;100.00;101215.34;5093628;28;19924;-76
2021/10/26 12:33:32;;;;;;;;;;;;;;;12.34;100.00;101209.78;5093411;28;19933;-76
2021/10/26 12:36:05;;;;;;;;;;;;;;;12.31;100.00;101212.75;5073869;28;19924;-76
2021/10/26 12:38:37;;;;;;;;;;;;;;;12.29;100.00;101218.28;5075183;28;20336;-76
2021/10/26 12:41:10;;;;;;;;;;;;;;;12.31;100.00;101212.75;5075078;28;19996;-75
2021/10/26 12:43:36;;;;;;;;;;;;;;;12.29;100.00;101207.41;5075570;28;19935;-75
2021/10/26 12:46:14;;;;;;;;;;;;;;;12.31;100.00;101218.19;5092929;28;20032;-75
2021/10/26 12:48:41;;;;;;;;;;;;;;;12.36;100.00;101218.69;5092820;28;19951;-75
2021/10/26 12:51:09;;;;;;;;;;;;;;;12.34;100.00;101226.09;5092782;28;20390;-75
2021/10/26 12:53:37;;;;;;;;;;;;;;;12.30;100.00;101221.91;5092613;28;19975;-75
2021/10/26 12:56:05;;;;;;;;;;;;;;;12.31;100.00;101226.38;5093117;28;19924;-75